Time;durP1;ratioP1;P1;durP2;ratioP2;P2;SDS_P1;SDS_P2;PMS_P1;PMS_P2;Temp;Humidity;BMP_temperature;BMP_pressure;BME280_temperature;BME280_humidity;BME280_pressure;Samples;Min_cycle;Max_cycle;Signal;HPM_P1;HPM_P2
2021/12/10 06:30:45;;;;;;;6.90;2.43;;;3.20;99.90;;;;;;4765490;27;10001951;-79
2021/12/10 06:33:15;;;;;;;2.70;2.22;;;2.90;99.90;;;;;;5095080;28;20475;-82
2021/12/10 06:35:43;;;;;;;3.83;3.50;;;3.80;99.90;;;;;;5088150;28;20471;-80
2021/12/10 06:38:10;;;;;;;5.30;3.08;;;3.10;99.90;;;;;;5094463;28;20619;-80
2021/12/10 06:40:39;;;;;;;3.22;3.00;;;3.30;99.90;;;;;;5096786;28;20367;-80
2021/12/10 06:43:05;;;;;;;4.47;3.28;;;3.40;99.90;;;;;;5093139;28;20201;-82
2021/12/10 06:45:45;;;;;;;3.60;2.67;;;3.50;99.90;;;;;;5096580;28;20288;-80
2021/12/10 06:48:13;;;;;;;3.20;3.10;;;3.40;99.90;;;;;;5088417;28;20191;-80
2021/12/10 06:50:46;;;;;;;4.13;3.00;;;3.50;99.90;;;;;;5096338;28;20227;-81
2021/12/10 06:53:19;;;;;;;4.45;2.90;;;3.50;99.90;;;;;;5109814;28;20343;-81
2021/12/10 06:55:46;;;;;;;7.45;2.80;;;3.50;99.90;;;;;;5092640;28;20196;-80
2021/12/10 06:58:12;;;;;;;2.63;2.42;;;3.50;99.90;;;;;;5095209;28;20185;-80
2021/12/10 07:00:46;;;;;;;3.40;2.97;;;3.50;99.90;;;;;;5095172;28;20279;-79
2021/12/10 07:03:15;;;;;;;7.93;3.13;;;3.50;99.90;;;;;;5091559;28;20436;-80
2021/12/10 07:05:45;;;;;;;3.95;3.00;;;3.40;99.90;;;;;;5097004;28;20194;-80
2021/12/10 07:08:12;;;;;;;5.65;2.67;;;3.40;99.90;;;;;;5097119;28;20706;-76
2021/12/10 07:10:38;;;;;;;2.10;2.00;;;3.50;99.90;;;;;;5096892;28;20204;-80
2021/12/10 07:13:06;;;;;;;3.90;1.80;;;4.20;99.90;;;;;;5104146;28;20215;-76
2021/12/10 07:15:36;;;;;;;8.20;2.33;;;3.50;99.90;;;;;;5095388;28;20644;-80
2021/12/10 07:18:05;;;;;;;5.93;4.60;;;3.60;99.90;;;;;;5088255;28;20196;-80
2021/12/10 07:20:31;;;;;;;5.05;2.50;;;3.70;99.90;;;;;;5102114;28;20197;-79
2021/12/10 07:22:57;;;;;;;5.30;2.90;;;3.60;99.90;;;;;;5096905;28;20242;-80
2021/12/10 07:25:23;;;;;;;4.03;2.57;;;3.70;99.90;;;;;;5094680;28;20465;-81
2021/12/10 07:27:50;;;;;;;5.85;2.35;;;3.70;99.90;;;;;;5095909;28;20193;-81
2021/12/10 07:30:19;;;;;;;2.70;2.00;;;4.40;99.90;;;;;;5095916;28;20216;-80
2021/12/10 07:32:45;;;;;;;4.35;2.55;;;3.70;99.90;;;;;;5090669;28;20193;-80
2021/12/10 07:35:12;;;;;;;5.00;3.17;;;3.40;99.90;;;;;;5092025;28;20268;-79
2021/12/10 07:37:38;;;;;;;4.18;3.35;;;3.50;99.90;;;;;;5095328;28;20177;-80
2021/12/10 07:40:10;;;;;;;4.30;2.60;;;3.60;99.90;;;;;;5090976;28;20521;-81
2021/12/10 07:42:36;;;;;;;4.55;2.35;;;3.70;99.90;;;;;;5081772;28;20528;-79
2021/12/10 07:45:04;;;;;;;4.67;2.13;;;3.80;99.90;;;;;;5083821;28;20225;-81
2021/12/10 07:47:34;;;;;;;5.47;3.00;;;3.80;99.90;;;;;;5079369;28;20193;-80
2021/12/10 07:50:00;;;;;;;10.15;2.40;;;3.80;99.90;;;;;;5081267;28;20706;-79
2021/12/10 07:52:28;;;;;;;10.10;2.40;;;3.80;99.90;;;;;;5081596;28;20315;-79
2021/12/10 07:54:55;;;;;;;2.30;2.20;;;3.80;99.90;;;;;;5080312;28;20311;-79
2021/12/10 07:57:22;;;;;;;6.57;2.08;;;4.10;99.90;;;;;;5079528;28;21056;-79
2021/12/10 07:59:49;;;;;;;10.20;2.80;;;3.60;99.90;;;;;;5081099;28;20485;-79
2021/12/10 08:02:16;;;;;;;3.80;3.45;;;4.00;99.90;;;;;;5079483;28;20446;-80
2021/12/10 08:04:44;;;;;;;7.13;2.42;;;4.00;99.90;;;;;;5073701;28;20568;-80
2021/12/10 08:07:12;;;;;;;2.50;2.38;;;4.00;99.90;;;;;;5078936;28;20200;-80
2021/12/10 08:09:41;;;;;;;3.88;2.03;;;4.20;99.90;;;;;;5076184;28;20221;-80
2021/12/10 08:12:07;;;;;;;4.13;2.45;;;4.10;99.90;;;;;;5066997;28;20194;-80
2021/12/10 08:14:33;;;;;;;2.45;2.13;;;4.10;99.90;;;;;;5078423;28;20190;-80
2021/12/10 08:16:59;;;;;;;2.77;1.97;;;4.10;99.90;;;;;;5080633;28;20243;-80
2021/12/10 08:19:27;;;;;;;2.83;2.13;;;4.30;99.90;;;;;;5081933;28;20513;-78
2021/12/10 08:21:57;;;;;;;6.85;3.78;;;4.30;99.90;;;;;;5080666;28;20439;-79
2021/12/10 08:24:23;;;;;;;2.35;2.15;;;4.30;99.90;;;;;;5082725;28;20170;-79
2021/12/10 08:26:48;;;;;;;3.40;2.20;;;4.70;99.90;;;;;;5079690;28;21006;-79
2021/12/10 08:29:16;;;;;;;2.23;2.13;;;4.40;99.90;;;;;;5081063;28;20803;-79
2021/12/10 08:31:42;;;;;;;2.35;1.70;;;4.30;99.90;;;;;;5080808;28;20384;-79
2021/12/10 08:34:08;;;;;;;3.83;2.80;;;4.30;99.90;;;;;;5080672;28;20242;-79
2021/12/10 08:36:35;;;;;;;4.22;2.58;;;4.40;99.90;;;;;;5075638;28;20240;-79
2021/12/10 08:39:03;;;;;;;2.90;2.10;;;4.50;99.90;;;;;;5081378;28;20235;-79
2021/12/10 08:41:32;;;;;;;8.65;5.35;;;4.50;99.90;;;;;;5081077;28;20242;-79
2021/12/10 08:43:58;;;;;;;3.22;1.77;;;4.50;99.90;;;;;;5079611;28;20177;-79
2021/12/10 08:46:30;;;;;;;8.48;2.95;;;4.70;99.90;;;;;;5080866;28;20252;-80
2021/12/10 08:48:59;;;;;;;3.03;2.80;;;4.80;99.90;;;;;;5072742;28;20474;-80
2021/12/10 08:51:41;;;;;;;3.20;2.60;;;4.90;99.90;;;;;;5082815;28;20190;-79
2021/12/10 08:54:08;;;;;;;3.53;2.55;;;5.40;99.90;;;;;;5083536;28;20455;-79
2021/12/10 08:56:35;;;;;;;3.40;2.60;;;4.80;99.90;;;;;;5084351;28;20174;-80
2021/12/10 08:59:02;;;;;;;2.90;2.00;;;4.80;99.90;;;;;;5084541;28;20437;-81
2021/12/10 09:01:33;;;;;;;2.55;1.45;;;4.80;99.90;;;;;;5086411;28;20182;-79
2021/12/10 09:04:02;;;;;;;2.47;1.58;;;4.80;99.90;;;;;;5093990;28;20706;-80
2021/12/10 09:06:34;;;;;;;8.38;2.50;;;4.90;99.90;;;;;;5085446;28;20182;-79
2021/12/10 09:09:01;;;;;;;4.82;2.00;;;5.00;99.90;;;;;;5085563;28;20209;-79
2021/12/10 09:11:29;;;;;;;1.75;1.75;;;5.00;99.90;;;;;;5084171;28;20204;-80
2021/12/10 09:13:55;;;;;;;1.70;1.60;;;4.90;99.90;;;;;;5075626;28;20211;-80
2021/12/10 09:16:26;;;;;;;8.70;1.90;;;5.10;99.90;;;;;;5083931;28;20221;-79
2021/12/10 09:18:57;;;;;;;3.15;1.67;;;5.20;99.90;;;;;;5082333;28;20186;-79
2021/12/10 09:21:24;;;;;;;2.85;1.50;;;5.30;99.90;;;;;;5080326;28;20178;-79
2021/12/10 09:23:53;;;;;;;7.03;2.58;;;5.30;99.90;;;;;;5081368;28;20250;-80
2021/12/10 09:26:20;;;;;;;2.40;1.52;;;5.40;99.90;;;;;;5085122;28;20669;-81
2021/12/10 09:28:47;;;;;;;4.03;1.98;;;5.70;99.90;;;;;;5082838;28;20613;-79
2021/12/10 09:31:14;;;;;;;2.50;1.25;;;5.90;99.90;;;;;;5078685;28;20197;-80
2021/12/10 09:33:42;;;;;;;3.10;1.95;;;6.30;99.90;;;;;;5080851;28;20243;-80
2021/12/10 09:36:08;;;;;;;2.85;1.73;;;6.60;99.90;;;;;;5071159;28;20186;-80
2021/12/10 09:38:35;;;;;;;1.58;1.35;;;6.80;99.90;;;;;;5079684;28;20227;-81
2021/12/10 09:41:04;;;;;;;1.83;1.73;;;6.90;99.90;;;;;;5079659;28;20200;-79
2021/12/10 09:43:32;;;;;;;1.63;1.52;;;6.90;99.90;;;;;;5082341;28;20186;-81
2021/12/10 09:46:02;;;;;;;3.72;1.48;;;7.10;99.90;;;;;;5219589;22;20729;-85
2021/12/10 09:48:33;;;;;;;5.18;4.63;;;7.20;99.80;;;;;;5037267;28;20585;-86
2021/12/10 09:51:07;;;;;;;2.25;1.35;;;7.40;99.90;;;;;;5030215;28;20180;-86
2021/12/10 09:53:34;;;;;;;1.58;1.48;;;7.00;99.90;;;;;;5025694;28;20282;-85
2021/12/10 09:56:01;;;;;;;1.88;1.83;;;6.60;99.90;;;;;;5040535;28;20198;-86
2021/12/10 09:58:27;;;;;;;2.67;1.40;;;6.50;99.90;;;;;;5040570;28;20199;-85
2021/12/10 10:00:59;;;;;;;9.00;2.22;;;6.40;99.90;;;;;;5027127;28;20293;-84
2021/12/10 10:03:31;;;;;;;1.50;1.40;;;6.60;99.90;;;;;;5043896;28;20266;-85
2021/12/10 10:05:59;;;;;;;1.75;1.75;;;6.50;99.90;;;;;;5042514;28;20195;-84
2021/12/10 10:08:26;;;;;;;1.58;1.58;;;6.80;99.90;;;;;;5025610;28;20196;-85
2021/12/10 10:10:57;;;;;;;1.95;1.80;;;6.60;99.90;;;;;;5040454;28;20207;-87
2021/12/10 10:13:26;;;;;;;5.05;2.15;;;6.50;99.90;;;;;;5031198;28;20199;-86
2021/12/10 10:15:56;;;;;;;1.58;1.52;;;6.40;99.90;;;;;;5035650;28;20290;-86
2021/12/10 10:18:22;;;;;;;1.60;1.50;;;6.40;99.90;;;;;;5039675;28;20356;-84
2021/12/10 10:20:54;;;;;;;2.55;1.45;;;6.50;99.90;;;;;;5033831;28;20302;-86
2021/12/10 10:23:20;;;;;;;6.70;2.17;;;6.40;99.90;;;;;;4340252;28;10000715;-89
2021/12/10 10:25:51;;;;;;;2.60;2.40;;;6.70;99.90;;;;;;5038430;28;20552;-86
2021/12/10 10:28:17;;;;;;;3.88;2.47;;;7.00;99.90;;;;;;5036173;28;20203;-85
2021/12/10 10:31:01;;;;;;;3.03;2.47;;;6.90;99.90;;;;;;5042862;28;20187;-88
2021/12/10 10:33:36;;;;;;;1.83;1.73;;;7.10;99.90;;;;;;5026939;28;20557;-88
2021/12/10 10:36:19;;;;;;;1.55;1.55;;;8.20;99.90;;;;;;5057019;28;20426;-84
2021/12/10 10:38:58;;;;;;;2.90;1.60;;;6.80;99.50;;;;;;5045240;28;20193;-88
2021/12/10 10:41:33;;;;;;;1.95;1.50;;;7.80;98.90;;;;;;5040471;28;20639;-85
2021/12/10 10:44:00;;;;;;;1.80;1.70;;;8.70;98.90;;;;;;4691996;28;10001158;-85
2021/12/10 10:46:30;;;;;;;3.72;2.22;;;7.80;97.00;;;;;;5027064;28;20291;-85
2021/12/10 10:48:58;;;;;;;7.78;2.33;;;8.00;96.10;;;;;;5034217;28;20258;-86
2021/12/10 10:51:37;;;;;;;2.15;2.00;;;8.30;97.40;;;;;;5026388;28;20219;-84
2021/12/10 10:54:08;;;;;;;4.00;1.73;;;8.80;94.80;;;;;;5014861;28;20477;-87
2021/12/10 10:56:42;;;;;;;2.25;1.80;;;11.10;94.80;;;;;;5029117;28;20422;-87
2021/12/10 10:59:25;;;;;;;1.53;1.53;;;9.00;92.20;;;;;;5023375;28;20211;-85
2021/12/10 11:02:03;;;;;;;3.40;2.60;;;8.80;90.90;;;;;;5029355;28;20814;-84
2021/12/10 11:04:36;;;;;;;1.65;1.65;;;8.70;93.10;;;;;;5021758;28;20271;-85
2021/12/10 11:07:18;;;;;;;2.22;1.35;;;8.20;92.80;;;;;;5034782;28;20207;-84
2021/12/10 11:09:53;;;;;;;1.50;1.50;;;8.10;93.00;;;;;;5025625;28;20327;-85
2021/12/10 11:12:29;;;;;;;5.28;2.25;;;7.80;93.70;;;;;;5028815;28;20274;-86
2021/12/10 11:14:59;;;;;;;1.90;1.80;;;8.80;95.90;;;;;;5020121;28;20197;-85
2021/12/10 11:17:32;;;;;;;2.00;1.90;;;8.10;94.90;;;;;;5026644;28;20195;-85
2021/12/10 11:20:10;;;;;;;1.27;1.20;;;7.90;93.50;;;;;;5024742;28;20239;-85
2021/12/10 11:22:48;;;;;;;1.83;1.50;;;8.00;94.00;;;;;;5015043;28;20543;-84
2021/12/10 11:25:19;;;;;;;2.20;2.00;;;8.10;94.20;;;;;;5021925;28;20196;-86
2021/12/10 11:27:46;;;;;;;2.75;2.22;;;8.40;93.50;;;;;;5029267;28;20363;-82
2021/12/10 11:30:25;;;;;;;3.35;1.90;;;8.40;91.50;;;;;;5025680;28;20278;-83
2021/12/10 11:32:52;;;;;;;2.40;1.33;;;8.30;91.20;;;;;;5029045;28;20672;-83
2021/12/10 11:35:23;;;;;;;2.47;1.50;;;8.20;91.60;;;;;;5023170;28;20954;-85
2021/12/10 11:38:10;;;;;;;5.82;2.67;;;8.10;91.40;;;;;;5021180;28;20249;-84
2021/12/10 11:41:13;;;;;;;1.95;1.85;;;7.90;93.20;;;;;;5026608;28;20233;-84
2021/12/10 11:44:06;;;;;;;4.65;1.90;;;7.90;92.20;;;;;;5013708;28;20230;-84
2021/12/10 11:49:21;;;;;;;3.08;1.80;;;8.10;92.50;;;;;;5026121;28;21436;-84
2021/12/10 11:51:56;;;;;;;2.08;1.85;;;8.10;92.20;;;;;;5030703;28;20386;-85
2021/12/10 11:54:28;;;;;;;2.08;1.70;;;8.00;92.70;;;;;;5032904;28;20307;-86
2021/12/10 11:57:12;;;;;;;3.35;2.08;;;7.90;93.10;;;;;;5023273;28;20194;-86
2021/12/10 11:59:57;;;;;;;1.40;1.30;;;7.70;94.00;;;;;;5033311;28;20728;-87
2021/12/10 12:02:33;;;;;;;1.40;1.27;;;7.70;94.00;;;;;;5027547;28;20678;-85
2021/12/10 12:05:09;;;;;;;1.88;1.85;;;7.40;94.10;;;;;;5019958;28;20211;-84
2021/12/10 12:07:52;;;;;;;1.60;1.50;;;7.30;95.30;;;;;;5031195;28;20203;-85
2021/12/10 12:10:29;;;;;;;5.15;1.63;;;6.60;95.30;;;;;;5031365;28;20792;-84
2021/12/10 12:13:05;;;;;;;2.40;2.00;;;7.00;97.00;;;;;;5026164;28;20192;-88
2021/12/10 12:15:37;;;;;;;4.93;1.92;;;7.00;97.60;;;;;;5027239;28;20418;-84
2021/12/10 12:18:16;;;;;;;3.70;1.95;;;7.30;96.50;;;;;;5028180;28;20245;-83
2021/12/10 12:20:44;;;;;;;2.08;1.70;;;7.30;95.70;;;;;;5031425;28;20325;-84
2021/12/10 12:26:19;;;;;;;2.70;1.80;;;7.60;96.80;;;;;;5030639;28;20273;-84
2021/12/10 12:28:49;;;;;;;2.22;1.70;;;7.90;94.60;;;;;;5020291;28;20254;-85
2021/12/10 12:31:19;;;;;;;3.75;1.52;;;8.10;93.80;;;;;;5019656;28;20226;-85
2021/12/10 12:33:57;;;;;;;5.40;2.40;;;8.10;92.40;;;;;;5018384;28;20196;-84
2021/12/10 12:36:27;;;;;;;2.92;2.72;;;8.20;93.40;;;;;;5017572;28;20675;-86
2021/12/10 12:38:54;;;;;;;2.83;1.70;;;7.80;93.10;;;;;;5021373;28;20310;-84
2021/12/10 12:41:32;;;;;;;2.03;1.85;;;9.90;93.90;;;;;;5008299;28;20704;-84
2021/12/10 12:44:15;;;;;;;2.80;1.70;;;8.10;92.70;;;;;;5017183;28;20442;-85
2021/12/10 12:47:09;;;;;;;2.45;1.90;;;8.10;92.10;;;;;;5026352;28;20223;-87
2021/12/10 12:49:38;;;;;;;4.78;1.88;;;8.00;93.60;;;;;;5036767;28;20183;-85
2021/12/10 12:52:08;;;;;;;3.28;1.60;;;9.50;94.90;;;;;;5032682;28;20188;-86
2021/12/10 12:54:36;;;;;;;3.45;2.40;;;8.10;93.00;;;;;;5026237;28;20657;-85
2021/12/10 12:57:08;;;;;;;2.40;1.88;;;8.10;92.90;;;;;;5040499;28;20168;-88
2021/12/10 12:59:35;;;;;;;3.63;2.25;;;7.30;93.40;;;;;;5036843;28;20294;-85
2021/12/10 13:02:05;;;;;;;2.38;1.95;;;7.70;92.50;;;;;;5057506;28;20240;-85
2021/12/10 13:04:36;;;;;;;6.57;2.40;;;8.20;93.50;;;;;;5037955;28;20211;-88
2021/12/10 13:07:04;;;;;;;7.50;2.97;;;8.20;92.10;;;;;;5024828;28;20251;-88
2021/12/10 13:09:53;;;;;;;1.75;1.60;;;9.50;93.80;;;;;;5048817;28;20195;-89
2021/12/10 13:15:25;;;;;;;1.95;1.85;;;10.30;92.80;;;;;;5011215;28;20559;-87
2021/12/10 13:17:56;;;;;;;2.15;2.05;;;9.50;94.00;;;;;;5032619;28;20188;-87
2021/12/10 13:20:31;;;;;;;2.50;2.30;;;8.00;94.10;;;;;;5038368;28;20206;-85
2021/12/10 13:23:09;;;;;;;3.50;3.10;;;9.40;95.40;;;;;;5052511;28;20962;-88
2021/12/10 13:25:37;;;;;;;2.13;1.85;;;7.70;96.00;;;;;;5020505;28;20188;-87
2021/12/10 13:28:03;;;;;;;1.77;1.60;;;8.50;94.70;;;;;;5037309;28;20171;-88
2021/12/10 13:30:42;;;;;;;10.63;3.63;;;7.70;94.70;;;;;;5036633;28;20279;-88
2021/12/10 13:33:09;;;;;;;4.18;1.83;;;7.60;96.00;;;;;;5045840;28;20503;-89
2021/12/10 13:35:35;;;;;;;1.75;1.75;;;7.60;96.00;;;;;;5048099;28;20529;-87
2021/12/10 13:38:03;;;;;;;4.97;1.85;;;7.60;95.30;;;;;;5049488;28;20278;-86
2021/12/10 13:40:32;;;;;;;4.75;2.53;;;7.60;95.40;;;;;;5048806;28;20215;-81
2021/12/10 13:43:21;;;;;;;2.28;1.65;;;7.50;94.90;;;;;;5041199;28;20264;-85
2021/12/10 13:46:10;;;;;;;1.73;1.63;;;7.70;95.20;;;;;;5251522;22;20640;-87
2021/12/10 13:51:49;;;;;;;4.88;2.85;;;7.40;95.60;;;;;;5083730;28;20230;-84
2021/12/10 13:54:28;;;;;;;1.63;1.63;;;9.00;96.90;;;;;;5255397;22;21164;-88
2021/12/10 13:57:18;;;;;;;1.93;1.80;;;7.60;95.30;;;;;;4728685;28;10002010;-86
2021/12/10 14:00:01;;;;;;;1.70;1.70;;;8.70;96.00;;;;;;5081829;28;20308;-88
2021/12/10 14:02:45;;;;;;;2.00;1.90;;;7.60;95.40;;;;;;5275748;22;20302;-85
2021/12/10 14:05:25;;;;;;;3.78;3.08;;;6.40;94.00;;;;;;5065026;28;20198;-86
2021/12/10 14:08:07;;;;;;;2.15;2.15;;;8.60;95.90;;;;;;5035113;28;20202;-88
2021/12/10 14:11:10;;;;;;;2.75;2.35;;;7.20;95.90;;;;;;5051477;28;20183;-88
2021/12/10 14:13:49;;;;;;;;;;;;;;;;;;;;;
2021/12/10 14:16:15;;;;;;;2.10;2.05;;;6.30;97.10;;;;;;5043222;28;20251;-86
2021/12/10 14:19:29;;;;;;;2.43;2.00;;;7.00;97.80;;;;;;5041680;28;20544;-88
2021/12/10 14:21:57;;;;;;;2.20;1.40;;;6.10;96.40;;;;;;4956211;28;21033;-85
2021/12/10 14:24:44;;;;;;;4.07;2.70;;;6.90;97.30;;;;;;4946974;29;20198;-88
2021/12/10 14:27:16;;;;;;;1.95;1.90;;;9.00;97.30;;;;;;5020967;28;20199;-87
2021/12/10 14:30:03;;;;;;;5.07;3.65;;;6.50;97.80;;;;;;5045379;28;20517;-86
2021/12/10 14:32:29;;;;;;;2.30;2.05;;;6.60;98.40;;;;;;5032669;28;20301;-88
2021/12/10 14:35:15;;;;;;;2.03;1.90;;;6.50;98.90;;;;;;5035710;28;20366;-87
2021/12/10 14:37:59;;;;;;;2.67;2.47;;;6.60;97.90;;;;;;5037540;28;20195;-87
2021/12/10 14:40:35;;;;;;;2.45;2.30;;;6.60;97.90;;;;;;5031385;28;20301;-87
2021/12/10 14:43:27;;;;;;;2.05;1.95;;;6.60;97.60;;;;;;5051364;28;20190;-84
2021/12/10 14:46:02;;;;;;;4.30;3.30;;;8.00;99.00;;;;;;5041554;28;20373;-87
2021/12/10 14:48:28;;;;;;;3.22;3.05;;;6.40;97.80;;;;;;5037280;28;20326;-86
2021/12/10 14:51:08;;;;;;;3.15;2.85;;;6.40;98.90;;;;;;5047301;28;20209;-87
2021/12/10 14:53:41;;;;;;;2.83;2.08;;;6.40;99.10;;;;;;5037671;28;20175;-86
2021/12/10 14:56:29;;;;;;;3.40;3.10;;;6.40;98.70;;;;;;5030769;28;20219;-87
2021/12/10 14:59:13;;;;;;;3.90;3.30;;;6.40;98.90;;;;;;5020115;28;20216;-88
2021/12/10 15:02:02;;;;;;;4.40;2.67;;;6.40;99.60;;;;;;5049169;28;20261;-86
2021/12/10 15:04:40;;;;;;;5.05;3.63;;;6.40;99.90;;;;;;5052965;28;20207;-85
2021/12/10 15:07:11;;;;;;;4.05;2.55;;;6.40;99.90;;;;;;5031406;28;20297;-84
2021/12/10 15:10:02;;;;;;;4.05;3.20;;;6.10;99.60;;;;;;5030059;28;20167;-86
2021/12/10 15:13:15;;;;;;;4.15;2.70;;;6.20;99.90;;;;;;5030892;28;20749;-86
2021/12/10 15:15:58;;;;;;;3.35;3.15;;;6.30;99.60;;;;;;4946104;29;20198;-86
2021/12/10 15:18:43;;;;;;;3.25;2.90;;;6.30;99.80;;;;;;5030455;28;20669;-84
2021/12/10 15:21:33;;;;;;;2.40;2.30;;;6.30;99.80;;;;;;5048461;28;20206;-86
2021/12/10 15:24:08;;;;;;;2.67;2.50;;;6.30;99.70;;;;;;5034807;28;20206;-86
2021/12/10 15:26:52;;;;;;;5.05;3.15;;;6.30;99.50;;;;;;5047291;28;20625;-85
2021/12/10 15:29:27;;;;;;;4.65;2.20;;;6.20;99.70;;;;;;5028542;28;20175;-88
2021/12/10 15:32:04;;;;;;;2.75;2.65;;;6.10;99.90;;;;;;5029983;28;20167;-85
2021/12/10 15:34:37;;;;;;;3.60;3.30;;;6.10;99.90;;;;;;5013150;28;20673;-85
2021/12/10 15:37:06;;;;;;;11.50;4.30;;;6.00;99.90;;;;;;5032519;28;20560;-83
2021/12/10 15:39:32;;;;;;;2.90;2.70;;;5.90;99.90;;;;;;5014866;28;20226;-84
2021/12/10 15:42:03;;;;;;;3.40;3.20;;;5.40;99.90;;;;;;5030358;28;20254;-83
2021/12/10 15:44:30;;;;;;;2.80;2.70;;;6.10;99.90;;;;;;5030038;28;20195;-85
2021/12/10 15:46:57;;;;;;;4.10;3.80;;;7.80;99.90;;;;;;5051995;28;20778;-83
2021/12/10 15:49:26;;;;;;;3.20;2.80;;;5.90;99.90;;;;;;5051203;28;20183;-85
2021/12/10 15:52:02;;;;;;;3.38;2.50;;;5.90;99.90;;;;;;5046583;28;20794;-82
2021/12/10 15:54:32;;;;;;;6.57;3.63;;;5.80;99.90;;;;;;5031507;28;20175;-84
2021/12/10 15:57:25;;;;;;;3.72;3.40;;;5.80;99.90;;;;;;5030462;28;20202;-83
2021/12/10 15:59:59;;;;;;;5.07;3.25;;;5.80;99.90;;;;;;5029114;28;20215;-84
2021/12/10 16:02:26;;;;;;;6.18;3.10;;;5.80;99.90;;;;;;5032558;28;20692;-84
2021/12/10 16:05:02;;;;;;;3.67;3.45;;;5.80;99.90;;;;;;5033522;28;20183;-87
2021/12/10 16:07:33;;;;;;;6.95;3.50;;;5.70;99.90;;;;;;5033730;28;20182;-87
2021/12/10 16:10:10;;;;;;;8.02;5.15;;;5.70;99.90;;;;;;5035613;28;20230;-84
2021/12/10 16:12:37;;;;;;;4.40;3.25;;;5.80;99.90;;;;;;5037039;28;20207;-86
2021/12/10 16:15:14;;;;;;;2.70;2.50;;;5.90;99.90;;;;;;5034041;28;20282;-85
2021/12/10 16:17:40;;;;;;;4.13;3.88;;;6.20;99.90;;;;;;5052412;28;20182;-84
2021/12/10 16:20:16;;;;;;;3.50;3.20;;;5.80;99.90;;;;;;5031721;28;20219;-83
2021/12/10 16:22:43;;;;;;;3.80;2.70;;;5.80;99.90;;;;;;5047989;28;20471;-84
2021/12/10 16:25:10;;;;;;;5.43;3.10;;;5.60;99.90;;;;;;5045009;28;20536;-85
2021/12/10 16:27:46;;;;;;;3.92;3.53;;;5.60;99.90;;;;;;5044849;28;20277;-86
2021/12/10 16:30:18;;;;;;;3.92;3.20;;;5.70;99.90;;;;;;5031129;28;20234;-86
2021/12/10 16:32:48;;;;;;;3.72;3.53;;;5.60;99.90;;;;;;5032627;28;20556;-87
2021/12/10 16:35:20;;;;;;;6.05;3.50;;;5.50;99.90;;;;;;5262975;23;20422;-88
2021/12/10 16:37:48;;;;;;;4.65;4.22;;;6.70;99.90;;;;;;5070097;28;20198;-89
2021/12/10 16:40:28;;;;;;;7.10;3.78;;;5.50;99.90;;;;;;5076565;28;20234;-89
2021/12/10 16:43:03;;;;;;;4.90;4.15;;;5.00;99.90;;;;;;5075886;28;20336;-88
2021/12/10 16:45:30;;;;;;;4.90;3.90;;;5.60;99.90;;;;;;5057587;28;20198;-87
2021/12/10 16:47:57;;;;;;;7.90;4.00;;;5.60;99.90;;;;;;5053231;28;20171;-86
2021/12/10 16:50:26;;;;;;;3.35;3.25;;;5.60;99.90;;;;;;5068168;28;20545;-88
2021/12/10 16:52:54;;;;;;;5.07;4.70;;;6.90;99.90;;;;;;5071484;28;20262;-89
2021/12/10 16:55:26;;;;;;;5.75;3.53;;;6.60;99.90;;;;;;5061373;28;20929;-86
2021/12/10 16:57:56;;;;;;;8.35;3.95;;;5.60;99.90;;;;;;5063563;28;20269;-86
2021/12/10 17:00:27;;;;;;;4.30;4.00;;;5.40;99.90;;;;;;5062829;28;20756;-89
2021/12/10 17:02:55;;;;;;;3.78;3.28;;;5.50;99.90;;;;;;5051031;28;20201;-86
2021/12/10 17:05:28;;;;;;;3.85;3.35;;;5.60;99.90;;;;;;5061440;28;20226;-87
2021/12/10 17:07:59;;;;;;;6.72;3.40;;;4.30;99.90;;;;;;5055150;28;20264;-87
2021/12/10 17:10:36;;;;;;;4.68;3.97;;;5.60;99.90;;;;;;5066660;28;20200;-90
2021/12/10 17:13:28;;;;;;;4.57;4.22;;;5.30;99.90;;;;;;5049145;28;20174;-87
2021/12/10 17:15:55;;;;;;;4.97;4.68;;;5.40;99.90;;;;;;5056639;28;20849;-89
2021/12/10 17:18:32;;;;;;;5.25;4.88;;;5.20;99.90;;;;;;5059393;28;20256;-89
2021/12/10 17:21:04;;;;;;;3.53;3.42;;;5.30;99.90;;;;;;5053690;28;20247;-90
2021/12/10 17:23:30;;;;;;;4.00;3.78;;;5.00;99.90;;;;;;5062192;28;20198;-89
2021/12/10 17:26:06;;;;;;;4.95;4.45;;;4.80;99.90;;;;;;5068138;28;20259;-86
